Time;durP1;ratioP1;P1;durP2;ratioP2;P2;SDS_P1;SDS_P2;PMS_P1;PMS_P2;Temp;Humidity;BMP_temperature;BMP_pressure;BME280_temperature;BME280_humidity;BME280_pressure;Samples;Min_cycle;Max_cycle;Signal;HPM_P1;HPM_P2
2023/12/02 00:01:32;;;;;;;;;1.00;0.00;;;;;-146.25;100.00;57879.81;5118306;27;45765;-73
2023/12/02 00:03:58;;;;;;;;;1.00;1.00;;;;;-146.25;100.00;57879.81;5118090;27;45532;-72
2023/12/02 00:06:23;;;;;;;;;0.00;0.00;;;;;-146.25;100.00;57879.81;5118372;27;45200;-72
2023/12/02 00:08:49;;;;;;;;;1.00;1.00;;;;;-146.25;100.00;57879.81;5118462;27;45348;-73
2023/12/02 00:11:14;;;;;;;;;0.75;0.75;;;;;-146.25;100.00;57879.81;5118063;27;45897;-73
2023/12/02 00:13:40;;;;;;;;;0.75;0.75;;;;;-146.25;100.00;57879.81;5118190;27;45554;-73
2023/12/02 00:16:06;;;;;;;;;1.00;1.00;;;;;-146.25;100.00;57879.81;5118707;27;45437;-73
2023/12/02 00:18:32;;;;;;;;;0.67;0.67;;;;;-146.25;100.00;57879.81;5118535;27;45430;-72
2023/12/02 00:20:57;;;;;;;;;1.00;0.75;;;;;-146.25;100.00;57879.81;5118045;27;45352;-72
2023/12/02 00:23:24;;;;;;;;;1.33;1.00;;;;;-146.25;100.00;57879.81;5118069;27;45238;-73
2023/12/02 00:25:49;;;;;;;;;0.00;0.00;;;;;-146.25;100.00;57879.81;5118236;27;45438;-72
2023/12/02 00:28:15;;;;;;;;;1.00;1.00;;;;;-146.25;100.00;57879.81;5118195;27;45398;-73
2023/12/02 00:30:41;;;;;;;;;1.00;1.00;;;;;-146.25;100.00;57879.81;5117801;27;46116;-73
2023/12/02 00:33:06;;;;;;;;;0.00;0.00;;;;;-146.25;100.00;57879.81;5118396;27;45295;-72
2023/12/02 00:35:32;;;;;;;;;1.00;0.00;;;;;-146.25;100.00;57879.81;5117582;27;45479;-73
2023/12/02 00:37:57;;;;;;;;;0.00;0.00;;;;;-146.25;100.00;57879.81;5117660;27;45479;-72
2023/12/02 00:40:23;;;;;;;;;0.00;0.00;;;;;-146.25;100.00;57879.81;5117268;27;46099;-73
2023/12/02 00:42:50;;;;;;;;;0.67;0.00;;;;;-146.25;100.00;57879.81;5117396;27;45380;-72
2023/12/02 00:45:15;;;;;;;;;0.00;0.00;;;;;-146.25;100.00;57879.81;5117380;27;45168;-72
2023/12/02 00:47:41;;;;;;;;;0.00;0.00;;;;;-146.25;100.00;57879.81;5117739;27;45473;-73
2023/12/02 00:50:07;;;;;;;;;0.00;0.00;;;;;-146.25;100.00;57879.81;5118026;27;46021;-73
2023/12/02 00:52:33;;;;;;;;;0.00;0.00;;;;;-146.25;100.00;57879.81;5105259;27;45413;-73
2023/12/02 00:54:58;;;;;;;;;0.00;0.00;;;;;-146.25;100.00;57879.81;5098000;27;45386;-72
2023/12/02 00:57:24;;;;;;;;;0.00;0.00;;;;;-146.25;100.00;57879.81;5100934;27;45407;-72
2023/12/02 00:59:50;;;;;;;;;0.00;0.00;;;;;-146.25;100.00;57879.81;5100586;27;46162;-72
2023/12/02 01:02:15;;;;;;;;;0.00;0.00;;;;;-146.25;100.00;57879.81;5100437;27;45460;-73
2023/12/02 01:04:41;;;;;;;;;0.00;0.00;;;;;-146.25;100.00;57879.81;5100611;27;45512;-73
2023/12/02 01:07:06;;;;;;;;;0.00;0.00;;;;;-146.25;100.00;57879.81;5100956;27;45429;-72
2023/12/02 01:09:32;;;;;;;;;0.00;0.00;;;;;-146.25;100.00;57879.81;5081887;27;46112;-73
2023/12/02 01:11:57;;;;;;;;;0.00;0.00;;;;;-146.25;100.00;57879.81;5100553;27;45495;-72
2023/12/02 01:14:25;;;;;;;;;0.00;0.00;;;;;-146.25;100.00;57879.81;5100606;27;45458;-72
2023/12/02 01:16:51;;;;;;;;;0.00;0.00;;;;;-146.25;100.00;57879.81;5082317;27;45288;-72
2023/12/02 01:19:17;;;;;;;;;0.00;0.00;;;;;-146.25;100.00;57879.81;5100332;27;45608;-73
2023/12/02 01:21:43;;;;;;;;;0.00;0.00;;;;;-146.25;100.00;57879.81;5100048;27;45523;-73
2023/12/02 01:24:08;;;;;;;;;0.00;0.00;;;;;-146.25;100.00;57879.81;5100596;27;45468;-73
2023/12/02 01:26:34;;;;;;;;;0.00;0.00;;;;;-146.25;100.00;57879.81;5100376;27;45161;-73
2023/12/02 01:29:00;;;;;;;;;0.00;0.00;;;;;-146.25;100.00;57879.81;5100053;27;45998;-73
2023/12/02 01:31:25;;;;;;;;;0.00;0.00;;;;;-146.25;100.00;57879.81;5100119;27;45394;-72
2023/12/02 01:33:51;;;;;;;;;0.00;0.00;;;;;-146.25;100.00;57879.81;5100254;27;45301;-73
2023/12/02 01:36:16;;;;;;;;;0.00;0.00;;;;;-146.25;100.00;57879.81;5100286;27;45452;-73
2023/12/02 01:38:42;;;;;;;;;0.00;0.00;;;;;-146.25;100.00;57879.81;5100442;27;45420;-73
2023/12/02 01:41:08;;;;;;;;;0.00;0.00;;;;;-146.25;100.00;57879.81;5100306;27;45745;-72
2023/12/02 01:43:34;;;;;;;;;0.00;0.00;;;;;-146.25;100.00;57879.81;5100089;27;45456;-73
2023/12/02 01:46:00;;;;;;;;;0.00;0.00;;;;;-146.25;100.00;57879.81;5100077;27;45495;-73
2023/12/02 01:48:30;;;;;;;;;0.00;0.00;;;;;-146.25;100.00;57879.81;5099711;27;45504;-73
2023/12/02 01:50:56;;;;;;;;;0.00;0.00;;;;;-146.25;100.00;57879.81;5099625;27;46155;-72
2023/12/02 01:53:22;;;;;;;;;0.00;0.00;;;;;-146.25;100.00;57879.81;5099719;27;45386;-72
2023/12/02 01:55:48;;;;;;;;;0.00;0.00;;;;;-146.25;100.00;57879.81;5099953;27;45316;-73
2023/12/02 01:58:14;;;;;;;;;0.00;0.00;;;;;-146.25;100.00;57879.81;5081386;27;45629;-74
2023/12/02 02:00:39;;;;;;;;;0.00;0.00;;;;;-146.25;100.00;57879.81;5100005;27;45252;-73
2023/12/02 02:03:05;;;;;;;;;0.00;0.00;;;;;-146.25;100.00;57879.81;5099806;27;45242;-72
2023/12/02 02:05:31;;;;;;;;;0.00;0.00;;;;;-146.25;100.00;57879.81;5099385;27;45508;-73
2023/12/02 02:07:57;;;;;;;;;0.00;0.00;;;;;-146.25;100.00;57879.81;5099356;27;45585;-73
2023/12/02 02:10:23;;;;;;;;;0.00;0.00;;;;;-146.25;100.00;57879.81;5099249;27;45463;-72
2023/12/02 02:12:48;;;;;;;;;0.00;0.00;;;;;-146.25;100.00;57879.81;5081428;27;45255;-73
2023/12/02 02:15:14;;;;;;;;;0.00;0.00;;;;;-146.25;100.00;57879.81;5081451;27;45597;-73
2023/12/02 02:17:43;;;;;;;;;0.00;0.00;;;;;-146.25;100.00;57879.81;5099593;27;45656;-72
2023/12/02 02:20:08;;;;;;;;;0.00;0.00;;;;;-146.25;100.00;57879.81;5099210;27;45485;-73
2023/12/02 02:22:35;;;;;;;;;0.00;0.00;;;;;-146.25;100.00;57879.81;5099139;27;45204;-72
2023/12/02 02:25:00;;;;;;;;;0.00;0.00;;;;;-146.25;100.00;57879.81;5099456;27;45348;-73
2023/12/02 02:27:26;;;;;;;;;0.00;0.00;;;;;-146.25;100.00;57879.81;5080705;27;46322;-73
2023/12/02 02:29:52;;;;;;;;;0.00;0.00;;;;;-146.25;100.00;57879.81;5099344;27;45440;-73
2023/12/02 02:32:17;;;;;;;;;0.00;0.00;;;;;-146.25;100.00;57879.81;5099310;27;45517;-73
2023/12/02 02:34:43;;;;;;;;;0.00;0.00;;;;;-146.25;100.00;57879.81;5099512;27;45247;-72
2023/12/02 02:37:09;;;;;;;;;0.00;0.00;;;;;-146.25;100.00;57879.81;5098959;27;45479;-73
2023/12/02 02:39:34;;;;;;;;;0.00;0.00;;;;;-146.25;100.00;57879.81;5099051;27;45464;-72
2023/12/02 02:42:06;;;;;;;;;0.00;0.00;;;;;-146.25;100.00;57879.81;5099193;27;45560;-72
2023/12/02 02:44:33;;;;;;;;;0.00;0.00;;;;;-146.25;100.00;57879.81;5099441;27;45488;-72
2023/12/02 02:46:58;;;;;;;;;0.00;0.00;;;;;-146.25;100.00;57879.81;5098686;27;46042;-72
2023/12/02 02:49:24;;;;;;;;;0.00;0.00;;;;;-146.25;100.00;57879.81;5098665;27;45313;-73
2023/12/02 02:51:49;;;;;;;;;0.00;0.00;;;;;-146.25;100.00;57879.81;5098981;27;45377;-73
2023/12/02 02:54:15;;;;;;;;;0.00;0.00;;;;;-146.25;100.00;57879.81;5099406;27;45324;-73
2023/12/02 02:56:43;;;;;;;;;0.00;0.00;;;;;-146.25;100.00;57879.81;5098736;27;45387;-73
2023/12/02 02:59:08;;;;;;;;;0.00;0.00;;;;;-146.25;100.00;57879.81;5098656;27;45474;-73
2023/12/02 03:01:34;;;;;;;;;0.00;0.00;;;;;-146.25;100.00;57879.81;5098819;27;45306;-73
2023/12/02 03:03:59;;;;;;;;;0.00;0.00;;;;;-146.25;100.00;57879.81;5098906;27;45350;-73
2023/12/02 03:06:25;;;;;;;;;0.00;0.00;;;;;-146.25;100.00;57879.81;5098606;27;45974;-72
2023/12/02 03:08:51;;;;;;;;;0.00;0.00;;;;;-146.25;100.00;57879.81;5098697;27;45397;-73
2023/12/02 03:11:16;;;;;;;;;0.00;0.00;;;;;-146.25;100.00;57879.81;5098931;27;45384;-72
2023/12/02 03:13:42;;;;;;;;;0.00;0.00;;;;;-146.25;100.00;57879.81;5098838;27;45439;-73
2023/12/02 03:16:08;;;;;;;;;0.00;0.00;;;;;-146.25;100.00;57879.81;5098452;27;45295;-72
2023/12/02 03:18:34;;;;;;;;;0.00;0.00;;;;;-146.25;100.00;57879.81;5097236;27;45442;-72
2023/12/02 03:20:59;;;;;;;;;0.00;0.00;;;;;-146.25;100.00;57879.81;5098385;27;45501;-73
2023/12/02 03:23:25;;;;;;;;;0.00;0.00;;;;;-146.25;100.00;57879.81;5098796;27;45287;-72
2023/12/02 03:25:51;;;;;;;;;0.00;0.00;;;;;-146.25;100.00;57879.81;5098174;27;46293;-73
2023/12/02 03:28:18;;;;;;;;;0.00;0.00;;;;;-146.25;100.00;57879.81;5098404;27;45294;-72
2023/12/02 03:30:43;;;;;;;;;0.00;0.00;;;;;-146.25;100.00;57879.81;5098666;27;45311;-72
2023/12/02 03:33:09;;;;;;;;;0.00;0.00;;;;;-146.25;100.00;57879.81;5098259;27;45452;-73
2023/12/02 03:35:35;;;;;;;;;0.00;0.00;;;;;-146.25;100.00;57879.81;5098035;27;46137;-73
2023/12/02 03:38:00;;;;;;;;;0.00;0.00;;;;;-146.25;100.00;57879.81;5098142;27;45393;-73
2023/12/02 03:40:26;;;;;;;;;0.00;0.00;;;;;-146.25;100.00;57879.81;5098170;27;45393;-72
2023/12/02 03:42:52;;;;;;;;;0.00;0.00;;;;;-146.25;100.00;57879.81;5098408;27;45359;-73
2023/12/02 03:45:17;;;;;;;;;0.00;0.00;;;;;-146.25;100.00;57879.81;5098249;27;45428;-73
2023/12/02 03:47:43;;;;;;;;;0.00;0.00;;;;;-146.25;100.00;57879.81;5097939;27;45395;-72
2023/12/02 03:50:10;;;;;;;;;0.00;0.00;;;;;-146.25;100.00;57879.81;5098161;27;45216;-73
2023/12/02 03:52:36;;;;;;;;;0.00;0.00;;;;;-146.25;100.00;57879.81;5098120;27;45323;-72
2023/12/02 03:55:02;;;;;;;;;0.00;0.00;;;;;-146.25;100.00;57879.81;5097680;27;45453;-72
2023/12/02 03:57:27;;;;;;;;;0.00;0.00;;;;;-146.25;100.00;57879.81;5097938;27;45247;-73
2023/12/02 03:59:53;;;;;;;;;0.00;0.00;;;;;-146.25;100.00;57879.81;5097988;27;45472;-72
2023/12/02 04:02:18;;;;;;;;;0.00;0.00;;;;;-146.25;100.00;57879.81;5098275;27;45326;-73
2023/12/02 04:04:44;;;;;;;;;0.00;0.00;;;;;-146.25;100.00;57879.81;5079322;27;46404;-73
2023/12/02 04:07:09;;;;;;;;;0.00;0.00;;;;;-146.25;100.00;57879.81;5079188;27;45571;-73
2023/12/02 04:09:35;;;;;;;;;0.00;0.00;;;;;-146.25;100.00;57879.81;5079433;27;45443;-73
2023/12/02 04:12:01;;;;;;;;;0.00;0.00;;;;;-146.25;100.00;57879.81;5098004;27;45181;-73
2023/12/02 04:14:26;;;;;;;;;0.00;0.00;;;;;-146.25;100.00;57879.81;5097558;27;45964;-73
2023/12/02 04:16:52;;;;;;;;;0.00;0.00;;;;;-146.25;100.00;57879.81;5097508;27;45480;-73
2023/12/02 04:19:17;;;;;;;;;0.00;0.00;;;;;-146.25;100.00;57879.81;5098240;27;45501;-73
2023/12/02 04:21:44;;;;;;;;;0.00;0.00;;;;;-146.25;100.00;57879.81;5097984;27;45373;-73
2023/12/02 04:24:10;;;;;;;;;0.00;0.00;;;;;-146.25;100.00;57879.81;5097374;27;45556;-73
2023/12/02 04:26:37;;;;;;;;;0.00;0.00;;;;;-146.25;100.00;57879.81;5097303;27;45503;-72
2023/12/02 04:29:03;;;;;;;;;0.00;0.00;;;;;-146.25;100.00;57879.81;5098927;27;45540;-73
2023/12/02 04:31:29;;;;;;;;;0.00;0.00;;;;;-146.25;100.00;57879.81;5101120;27;45251;-72
2023/12/02 04:33:55;;;;;;;;;0.00;0.00;;;;;-146.25;100.00;57879.81;5101023;27;46017;-73
2023/12/02 04:36:21;;;;;;;;;0.00;0.00;;;;;-146.25;100.00;57879.81;5082819;27;45260;-72
2023/12/02 04:38:46;;;;;;;;;0.00;0.00;;;;;-146.25;100.00;57879.81;5101044;27;45278;-73
2023/12/02 04:41:12;;;;;;;;;0.00;0.00;;;;;-146.25;100.00;57879.81;5101199;27;45362;-72
2023/12/02 04:43:37;;;;;;;;;0.00;0.00;;;;;-146.25;100.00;57879.81;5100721;27;45548;-72
2023/12/02 04:46:06;;;;;;;;;0.00;0.00;;;;;-146.25;100.00;57879.81;5100722;27;45513;-73
2023/12/02 04:48:32;;;;;;;;;0.00;0.00;;;;;-146.25;100.00;57879.81;5101078;27;45423;-73
2023/12/02 04:50:58;;;;;;;;;0.00;0.00;;;;;-146.25;100.00;57879.81;5100922;27;45399;-73
2023/12/02 04:53:24;;;;;;;;;0.00;0.00;;;;;-146.25;100.00;57879.81;5100804;27;46006;-73
2023/12/02 04:55:52;;;;;;;;;0.00;0.00;;;;;-146.25;100.00;57879.81;5082809;27;45460;-73
2023/12/02 04:58:18;;;;;;;;;0.00;0.00;;;;;-146.25;100.00;57879.81;5100771;27;45485;-73
2023/12/02 05:00:44;;;;;;;;;0.00;0.00;;;;;-146.25;100.00;57879.81;5100965;27;45408;-72
2023/12/02 05:03:10;;;;;;;;;0.00;0.00;;;;;-146.25;100.00;57879.81;5082075;27;45436;-73
2023/12/02 05:05:36;;;;;;;;;0.00;0.00;;;;;-146.25;100.00;57879.81;5082238;27;45501;-72
2023/12/02 05:08:02;;;;;;;;;0.00;0.00;;;;;-146.25;100.00;57879.81;5100483;27;45330;-73
2023/12/02 05:10:27;;;;;;;;;0.00;0.00;;;;;-146.25;100.00;57879.81;5100679;27;45458;-73
2023/12/02 05:12:53;;;;;;;;;0.00;0.00;;;;;-146.25;100.00;57879.81;5100575;27;45482;-73
2023/12/02 05:15:19;;;;;;;;;0.00;0.00;;;;;-146.25;100.00;57879.81;5100300;27;45472;-73
2023/12/02 05:17:46;;;;;;;;;0.00;0.00;;;;;-146.25;100.00;57879.81;5100599;27;45358;-72
2023/12/02 05:20:13;;;;;;;;;0.00;0.00;;;;;-146.25;100.00;57879.81;5100551;27;45324;-72
2023/12/02 05:22:41;;;;;;;;;0.00;0.00;;;;;-146.25;100.00;57879.81;5100083;27;45561;-73
2023/12/02 05:25:07;;;;;;;;;0.00;0.00;;;;;-146.25;100.00;57879.81;5100270;27;45488;-73
2023/12/02 05:27:33;;;;;;;;;0.00;0.00;;;;;-146.25;100.00;57879.81;5100151;27;45342;-73
2023/12/02 05:29:59;;;;;;;;;0.00;0.00;;;;;-146.25;100.00;57879.81;5100232;27;45165;-73
2023/12/02 05:32:25;;;;;;;;;0.00;0.00;;;;;-146.25;100.00;57879.81;5100264;27;46146;-73
2023/12/02 05:34:51;;;;;;;;;0.00;0.00;;;;;-146.25;100.00;57879.81;5099743;27;45448;-72
2023/12/02 05:37:16;;;;;;;;;0.00;0.00;;;;;-146.25;100.00;57879.81;5081621;27;45502;-73
2023/12/02 05:39:42;;;;;;;;;0.00;0.00;;;;;-146.25;100.00;57879.81;5100229;27;45477;-72
2023/12/02 05:42:08;;;;;;;;;0.00;0.00;;;;;-146.25;100.00;57879.81;5099280;27;45936;-72
2023/12/02 05:44:33;;;;;;;;;0.33;0.00;;;;;-146.25;100.00;57879.81;5081596;27;45410;-72
2023/12/02 05:46:59;;;;;;;;;0.00;0.00;;;;;-146.25;100.00;57879.81;5100042;27;45250;-74
2023/12/02 05:49:24;;;;;;;;;0.00;0.00;;;;;-146.25;100.00;57879.81;5100644;27;45434;-73
2023/12/02 05:51:50;;;;;;;;;0.00;0.00;;;;;-146.25;100.00;57879.81;5104155;27;45489;-74
2023/12/02 05:54:16;;;;;;;;;0.00;0.00;;;;;-146.25;100.00;57879.81;5120031;27;45418;-72
2023/12/02 05:56:42;;;;;;;;;1.00;1.00;;;;;-146.25;100.00;57879.81;5120014;27;45375;-73
2023/12/02 05:59:07;;;;;;;;;1.00;1.00;;;;;-146.25;100.00;57879.81;5120683;27;45879;-73
2023/12/02 06:01:34;;;;;;;;;4.00;2.00;;;;;-146.25;100.00;57879.81;5120245;27;45450;-73
2023/12/02 06:04:00;;;;;;;;;27.50;23.25;;;;;-146.25;100.00;57879.81;5120236;27;45606;-73
2023/12/02 06:06:26;;;;;;;;;8.25;8.00;;;;;-146.25;100.00;57879.81;5101721;27;45284;-75
2023/12/02 06:08:51;;;;;;;;;17.75;16.50;;;;;-146.25;100.00;57879.81;5120379;27;45296;-77
2023/12/02 06:11:17;;;;;;;;;7.75;6.00;;;;;-146.25;100.00;57879.81;5119968;27;46019;-74
2023/12/02 06:13:44;;;;;;;;;5.00;5.00;;;;;-146.25;100.00;57879.81;5119784;27;45490;-76
2023/12/02 06:16:10;;;;;;;;;4.00;4.00;;;;;-146.25;100.00;57879.81;5119679;27;45551;-73
2023/12/02 06:18:36;;;;;;;;;20.50;19.50;;;;;-146.25;100.00;57879.81;5119926;27;45510;-73
2023/12/02 06:21:01;;;;;;;;;7.25;6.00;;;;;-146.25;100.00;57879.81;5119613;27;45534;-75
2023/12/02 06:23:27;;;;;;;;;17.25;16.00;;;;;-146.25;100.00;57879.81;5119888;27;45549;-72
2023/12/02 06:25:52;;;;;;;;;17.50;15.75;;;;;-146.25;100.00;57879.81;5119485;27;45333;-73
2023/12/02 06:28:18;;;;;;;;;13.25;12.50;;;;;-146.25;100.00;57879.81;5119794;27;45494;-72
2023/12/02 06:30:44;;;;;;;;;16.25;12.00;;;;;-146.25;100.00;57879.81;5119347;27;45829;-72
2023/12/02 06:33:10;;;;;;;;;7.25;7.25;;;;;-146.25;100.00;57879.81;5118697;27;45408;-72
2023/12/02 06:35:35;;;;;;;;;11.00;11.00;;;;;-146.25;100.00;57879.81;5119454;27;45248;-72
2023/12/02 06:38:01;;;;;;;;;7.75;7.25;;;;;-146.25;100.00;57879.81;5119781;27;45350;-73
2023/12/02 06:40:26;;;;;;;;;13.50;10.25;;;;;-146.25;100.00;57879.81;5099590;27;46982;-72
2023/12/02 06:42:52;;;;;;;;;8.00;7.75;;;;;-146.25;100.00;57879.81;5107266;27;45369;-75
2023/12/02 06:45:17;;;;;;;;;9.75;7.25;;;;;-146.25;100.00;57879.81;5109437;27;45438;-74
2023/12/02 06:47:44;;;;;;;;;11.25;8.50;;;;;-146.25;100.00;57879.81;5108600;27;45348;-73
2023/12/02 06:50:10;;;;;;;;;14.25;12.25;;;;;-146.25;100.00;57879.81;5088820;27;46623;-72
2023/12/02 06:52:36;;;;;;;;;12.00;10.00;;;;;-146.25;100.00;57879.81;5108910;27;45438;-73
2023/12/02 06:55:01;;;;;;;;;15.00;13.75;;;;;-146.25;100.00;57879.81;5107772;27;45495;-73
2023/12/02 06:57:27;;;;;;;;;22.50;17.50;;;;;-146.25;100.00;57879.81;5108275;27;45487;-76
2023/12/02 06:59:52;;;;;;;;;23.75;20.75;;;;;-146.25;100.00;57879.81;5109061;27;45356;-75
2023/12/02 07:02:18;;;;;;;;;19.25;15.75;;;;;-146.25;100.00;57879.81;5088736;27;45418;-77
2023/12/02 07:04:45;;;;;;;;;194.50;164.00;;;;;-146.25;100.00;57879.81;5108249;27;45278;-73
2023/12/02 07:07:11;;;;;;;;;37.25;30.25;;;;;-146.25;100.00;57879.81;5109283;27;45481;-76
2023/12/02 07:09:37;;;;;;;;;19.50;16.75;;;;;-146.25;100.00;57879.81;5106686;27;46256;-76
2023/12/02 07:12:03;;;;;;;;;13.50;10.75;;;;;-146.25;100.00;57879.81;5108054;27;45582;-75
2023/12/02 07:14:29;;;;;;;;;11.25;9.75;;;;;-146.25;100.00;57879.81;5109010;27;45476;-72
2023/12/02 07:16:54;;;;;;;;;9.00;8.25;;;;;-146.25;100.00;57879.81;5107009;27;45476;-76
2023/12/02 07:19:20;;;;;;;;;9.00;8.00;;;;;-146.25;100.00;57879.81;5108364;27;46024;-77
2023/12/02 07:21:46;;;;;;;;;10.00;8.25;;;;;-146.25;100.00;57879.81;5107987;27;45511;-77
2023/12/02 07:24:11;;;;;;;;;14.25;12.50;;;;;-146.25;100.00;57879.81;5106829;27;45488;-76
2023/12/02 07:26:37;;;;;;;;;16.75;16.75;;;;;-146.25;100.00;57879.81;5106823;27;45532;-76
2023/12/02 07:29:03;;;;;;;;;44.25;38.00;;;;;-146.25;100.00;57879.81;5107981;27;46038;-73
2023/12/02 07:31:29;;;;;;;;;25.75;24.75;;;;;-146.25;100.00;57879.81;5108650;27;45344;-72
2023/12/02 07:33:54;;;;;;;;;12.25;11.25;;;;;-146.25;100.00;57879.81;5106426;27;45472;-72
2023/12/02 07:36:20;;;;;;;;;14.00;10.75;;;;;-146.25;100.00;57879.81;5108532;27;45236;-76
2023/12/02 07:38:46;;;;;;;;;22.25;20.00;;;;;-146.25;100.00;57879.81;5107587;27;45423;-76
2023/12/02 07:41:11;;;;;;;;;36.50;32.50;;;;;-146.25;100.00;57879.81;5106454;27;45434;-75
2023/12/02 07:43:37;;;;;;;;;44.75;37.50;;;;;-146.25;100.00;57879.81;5106721;27;45394;-76
2023/12/02 07:46:03;;;;;;;;;28.25;27.00;;;;;-146.25;100.00;57879.81;5107921;27;45423;-73
2023/12/02 07:48:29;;;;;;;;;22.25;19.00;;;;;-146.25;100.00;57879.81;5108082;27;45654;-76
2023/12/02 07:50:54;;;;;;;;;26.00;22.50;;;;;-146.25;100.00;57879.81;5106142;27;45469;-73
2023/12/02 07:53:20;;;;;;;;;22.75;21.75;;;;;-146.25;100.00;57879.81;5107779;27;45509;-73
2023/12/02 07:55:46;;;;;;;;;20.50;17.25;;;;;-146.25;100.00;57879.81;5107582;27;45470;-76
2023/12/02 07:58:11;;;;;;;;;33.25;26.75;;;;;-146.25;100.00;57879.81;5106921;27;46053;-76
2023/12/02 08:00:37;;;;;;;;;17.00;15.00;;;;;-146.25;100.00;57879.81;5108844;27;45511;-76
2023/12/02 08:03:03;;;;;;;;;50.75;40.25;;;;;-146.25;100.00;57879.81;5108598;27;45350;-76
2023/12/02 08:05:28;;;;;;;;;27.25;24.00;;;;;-146.25;100.00;57879.81;5115149;27;45372;-76
2023/12/02 08:07:54;;;;;;;;;33.25;26.50;;;;;-146.25;100.00;57879.81;5094238;27;45404;-75
2023/12/02 08:10:20;;;;;;;;;15.50;15.25;;;;;-146.25;100.00;57879.81;5114659;27;45409;-75
2023/12/02 08:12:45;;;;;;;;;52.25;40.75;;;;;-146.25;100.00;57879.81;5114079;27;45531;-76
2023/12/02 08:15:11;;;;;;;;;31.75;26.50;;;;;-146.25;100.00;57879.81;5113147;27;45302;-76
2023/12/02 08:17:36;;;;;;;;;31.00;26.75;;;;;-146.25;100.00;57879.81;5114613;27;46040;-76
2023/12/02 08:20:05;;;;;;;;;28.50;26.00;;;;;-146.25;100.00;57879.81;5113747;27;45403;-75
2023/12/02 08:22:31;;;;;;;;;10.75;10.00;;;;;-146.25;100.00;57879.81;5113150;27;45542;-76
2023/12/02 08:24:57;;;;;;;;;16.00;14.25;;;;;-146.25;100.00;57879.81;5115050;27;45552;-73
2023/12/02 08:27:23;;;;;;;;;15.50;14.50;;;;;-146.25;100.00;57879.81;5114513;27;45969;-77
2023/12/02 08:29:48;;;;;;;;;21.50;16.50;;;;;-146.25;100.00;57879.81;5095318;27;45298;-76
2023/12/02 08:32:14;;;;;;;;;13.75;12.50;;;;;-146.25;100.00;57879.81;5112874;27;45438;-76
2023/12/02 08:34:40;;;;;;;;;21.00;20.25;;;;;-146.25;100.00;57879.81;5114334;27;45417;-74
2023/12/02 08:37:06;;;;;;;;;31.25;24.75;;;;;-146.25;100.00;57879.81;5113456;27;46160;-73
2023/12/02 08:39:32;;;;;;;;;28.50;23.50;;;;;-146.25;100.00;57879.81;5113731;27;45338;-76
2023/12/02 08:41:57;;;;;;;;;31.00;27.00;;;;;-146.25;100.00;57879.81;5111730;27;45242;-73
2023/12/02 08:44:23;;;;;;;;;20.25;17.50;;;;;-146.25;100.00;57879.81;5113433;27;45492;-73
2023/12/02 08:46:50;;;;;;;;;32.50;24.75;;;;;-146.25;100.00;57879.81;5113799;27;45465;-75
2023/12/02 08:49:15;;;;;;;;;29.50;24.25;;;;;-146.25;100.00;57879.81;5114365;27;45908;-73
2023/12/02 08:51:41;;;;;;;;;27.25;24.50;;;;;-146.25;100.00;57879.81;5112694;27;45501;-73
2023/12/02 08:54:07;;;;;;;;;39.25;33.00;;;;;-146.25;100.00;57879.81;5111790;27;45397;-73
2023/12/02 08:56:33;;;;;;;;;30.50;29.50;;;;;-146.25;100.00;57879.81;5111708;27;46027;-73
2023/12/02 08:58:59;;;;;;;;;27.75;23.25;;;;;-146.25;100.00;57879.81;5113960;27;45238;-73
2023/12/02 09:01:26;;;;;;;;;30.25;27.00;;;;;-146.25;100.00;57879.81;5113168;27;45396;-73
2023/12/02 09:03:52;;;;;;;;;53.25;40.75;;;;;-146.25;100.00;57879.81;5112371;27;45468;-72
2023/12/02 09:06:18;;;;;;;;;19.75;19.00;;;;;-146.25;100.00;57879.81;5112104;27;45643;-72
2023/12/02 09:08:44;;;;;;;;;25.00;23.00;;;;;-146.25;100.00;57879.81;5113250;27;45442;-72
2023/12/02 09:11:11;;;;;;;;;16.00;14.75;;;;;-146.25;100.00;57879.81;5113934;27;45564;-73
2023/12/02 09:13:39;;;;;;;;;14.25;14.00;;;;;-146.25;100.00;57879.81;5112194;27;45463;-73
2023/12/02 09:16:05;;;;;;;;;33.75;30.75;;;;;-146.25;100.00;57879.81;5090955;27;46759;-72
2023/12/02 09:18:35;;;;;;;;;31.50;27.75;;;;;-146.25;100.00;57879.81;5110361;27;45484;-75
2023/12/02 09:21:03;;;;;;;;;33.25;30.75;;;;;-146.25;100.00;57879.81;5092232;27;45474;-71
2023/12/02 09:23:29;;;;;;;;;30.25;26.50;;;;;-146.25;100.00;57879.81;5110311;27;45396;-72
2023/12/02 09:26:34;;;;;;;;;24.00;19.50;;;;;-146.25;100.00;57879.81;5089553;27;46281;-73
2023/12/02 09:29:00;;;;;;;;;22.25;20.25;;;;;-146.25;100.00;57879.81;5108501;27;45451;-72
2023/12/02 09:31:27;;;;;;;;;21.00;18.25;;;;;-146.25;100.00;57879.81;5101022;27;46096;-74
2023/12/02 09:34:03;;;;;;;;;19.00;17.75;;;;;-146.25;100.00;57879.81;5099596;27;45654;-72
2023/12/02 09:36:32;;;;;;;;;16.00;15.00;;;;;-146.25;100.00;57879.81;5099605;27;45470;-72
2023/12/02 09:39:04;;;;;;;;;16.25;15.00;;;;;-146.25;100.00;57879.81;5107719;27;45367;-72
2023/12/02 09:41:33;;;;;;;;;16.33;15.33;;;;;-146.25;100.00;57879.81;5109543;27;45442;-73
2023/12/02 09:44:28;;;;;;;;;15.00;13.00;;;;;-146.25;100.00;57879.81;5108135;27;45394;-73
2023/12/02 09:47:10;;;;;;;;;19.00;16.25;;;;;-146.25;100.00;57879.81;5109478;27;45350;-72
2023/12/02 09:50:03;;;;;;;;;23.25;21.00;;;;;-146.25;100.00;57879.81;5102225;27;45461;-73
2023/12/02 09:52:35;;;;;;;;;20.25;18.00;;;;;-146.25;100.00;57879.81;5099199;27;45275;-72
2023/12/02 09:55:09;;;;;;;;;13.00;12.33;;;;;-146.25;100.00;57879.81;5099481;27;45403;-73
2023/12/02 09:57:57;;;;;;;;;17.00;15.00;;;;;-146.25;100.00;57879.81;5099532;27;45381;-73
2023/12/02 10:00:46;;;;;;;;;18.00;16.00;;;;;-146.25;100.00;57879.81;5098600;27;45464;-72
2023/12/02 10:03:29;;;;;;;;;12.00;11.00;;;;;-146.25;100.00;57879.81;5098723;27;45320;-73
2023/12/02 10:06:17;;;;;;;;;9.00;8.67;;;;;-146.25;100.00;57879.81;5098483;27;45785;-73
2023/12/02 10:08:48;;;;;;;;;15.00;13.33;;;;;-146.25;100.00;57879.81;5098298;27;46229;-74
2023/12/02 10:11:23;;;;;;;;;25.75;24.50;;;;;-146.25;100.00;57879.81;5098638;27;45386;-74
2023/12/02 10:14:11;;;;;;;;;34.75;30.25;;;;;-146.25;100.00;57879.81;5096578;27;45398;-73
2023/12/02 10:16:39;;;;;;;;;17.25;17.25;;;;;-146.25;100.00;57879.81;5099041;27;45543;-74
2023/12/02 10:19:14;;;;;;;;;15.00;15.00;;;;;-146.25;100.00;57879.81;5098777;27;45454;-73
2023/12/02 10:21:44;;;;;;;;;11.33;11.00;;;;;-146.25;100.00;57879.81;5098658;27;45477;-74
2023/12/02 10:24:12;;;;;;;;;13.67;13.00;;;;;-146.25;100.00;57879.81;5099027;27;45311;-73
2023/12/02 10:27:03;;;;;;;;;10.00;8.33;;;;;-146.25;100.00;57879.81;5099202;27;45317;-74
2023/12/02 10:29:35;;;;;;;;;7.67;6.67;;;;;-146.25;100.00;57879.81;5098710;27;45386;-73
2023/12/02 10:32:07;;;;;;;;;10.33;10.33;;;;;-146.25;100.00;57879.81;5099001;27;45280;-73
2023/12/02 10:34:48;;;;;;;;;11.00;9.67;;;;;-146.25;100.00;57879.81;5100029;27;45534;-76
2023/12/02 10:37:13;;;;;;;;;8.67;8.00;;;;;-146.25;100.00;57879.81;5099292;27;45428;-72
2023/12/02 10:39:48;;;;;;;;;6.00;6.00;;;;;-146.25;100.00;57879.81;5099001;27;46066;-74
2023/12/02 10:42:32;;;;;;;;;10.00;9.33;;;;;-146.25;100.00;57879.81;5098546;27;45332;-74
2023/12/02 10:45:05;;;;;;;;;7.67;7.67;;;;;-146.25;100.00;57879.81;5080076;27;45395;-75
2023/12/02 10:47:31;;;;;;;;;4.00;4.00;;;;;-146.25;100.00;57879.81;5098936;27;45651;-77
2023/12/02 10:50:01;;;;;;;;;2.67;2.67;;;;;-146.25;100.00;57879.81;5098379;27;45418;-73
2023/12/02 10:52:28;;;;;;;;;3.00;3.00;;;;;-146.25;100.00;57879.81;5098159;27;45358;-73
2023/12/02 10:54:59;;;;;;;;;5.00;4.67;;;;;-146.25;100.00;57879.81;5098537;27;45449;-74
2023/12/02 10:57:26;;;;;;;;;5.67;5.00;;;;;-146.25;100.00;57879.81;5097948;27;45340;-74
2023/12/02 10:59:57;;;;;;;;;4.33;4.33;;;;;-146.25;100.00;57879.81;5097682;27;46661;-73
2023/12/02 11:02:31;;;;;;;;;5.00;3.00;;;;;-146.25;100.00;57879.81;5098066;27;45407;-74
2023/12/02 11:05:23;;;;;;;;;5.33;4.00;;;;;-146.25;100.00;57879.81;5098498;27;45242;-73